Time;durP1;ratioP1;P1;durP2;ratioP2;P2;SDS_P1;SDS_P2;PMS_P1;PMS_P2;Temp;Humidity;BMP_temperature;BMP_pressure;BME280_temperature;BME280_humidity;BME280_pressure;Samples;Min_cycle;Max_cycle;Signal;HPM_P1;HPM_P2
2022/11/23 00:01:36;;;;;;;3.23;2.40;;;7.40;99.90;;;;;;5082102;28;20259;-87
2022/11/23 00:04:07;;;;;;;3.47;2.47;;;7.50;99.90;;;;;;5071754;28;20204;-89
2022/11/23 00:06:33;;;;;;;3.43;2.23;;;7.40;99.90;;;;;;5075645;28;20199;-85
2022/11/23 00:08:59;;;;;;;3.73;2.30;;;7.50;99.90;;;;;;5077614;28;20188;-86
2022/11/23 00:11:26;;;;;;;4.33;2.50;;;7.30;99.90;;;;;;5078704;28;20233;-87
2022/11/23 00:13:52;;;;;;;5.87;2.90;;;7.40;99.90;;;;;;5082503;28;20247;-86
2022/11/23 00:16:21;;;;;;;3.10;2.27;;;7.40;99.90;;;;;;5086947;28;20175;-85
2022/11/23 00:18:50;;;;;;;3.00;2.20;;;7.30;99.90;;;;;;5069763;28;20216;-85
2022/11/23 00:21:17;;;;;;;5.23;2.50;;;7.30;99.90;;;;;;5081066;28;20237;-86
2022/11/23 00:23:43;;;;;;;4.50;2.33;;;7.10;99.90;;;;;;5080530;28;20191;-89
2022/11/23 00:26:09;;;;;;;3.47;2.00;;;7.00;99.90;;;;;;5083758;28;20274;-89
2022/11/23 00:28:39;;;;;;;3.47;2.10;;;6.90;99.90;;;;;;5084438;28;20347;-86
2022/11/23 00:31:10;;;;;;;4.60;2.30;;;7.00;99.90;;;;;;5078307;28;20207;-87
2022/11/23 00:33:36;;;;;;;4.67;2.40;;;6.90;99.90;;;;;;5074861;28;20271;-86
2022/11/23 00:36:11;;;;;;;5.10;2.60;;;7.00;99.90;;;;;;5075202;28;20192;-89
2022/11/23 00:38:37;;;;;;;4.53;2.70;;;7.00;99.90;;;;;;5081433;28;20230;-87
2022/11/23 00:41:05;;;;;;;5.60;2.57;;;6.90;99.90;;;;;;5083454;28;20352;-86
2022/11/23 00:43:31;;;;;;;6.03;2.60;;;6.90;99.90;;;;;;5082394;28;20188;-88
2022/11/23 00:46:15;;;;;;;6.47;2.80;;;7.00;99.90;;;;;;5074089;28;20180;-87
2022/11/23 00:48:46;;;;;;;7.37;2.33;;;7.00;99.90;;;;;;5075876;28;20191;-87
2022/11/23 00:51:14;;;;;;;6.80;2.73;;;7.10;99.90;;;;;;5077029;28;20212;-88
2022/11/23 00:53:40;;;;;;;3.80;2.40;;;7.00;99.90;;;;;;5082923;28;20188;-87
2022/11/23 00:56:06;;;;;;;4.67;2.63;;;7.10;99.90;;;;;;5076872;28;20203;-88
2022/11/23 00:58:32;;;;;;;2.57;2.17;;;7.20;99.90;;;;;;5073199;28;20218;-86
2022/11/23 01:01:12;;;;;;;6.53;2.67;;;7.30;99.90;;;;;;5076577;28;20192;-89
2022/11/23 01:03:39;;;;;;;5.97;3.10;;;7.40;99.90;;;;;;5078030;28;20183;-87
2022/11/23 01:06:11;;;;;;;3.80;2.67;;;7.50;99.90;;;;;;5086832;28;20183;-89
2022/11/23 01:08:37;;;;;;;4.67;2.90;;;7.50;99.90;;;;;;5080216;28;20176;-89
2022/11/23 01:11:06;;;;;;;4.83;2.40;;;7.40;99.90;;;;;;5074441;28;20223;-85
2022/11/23 01:13:32;;;;;;;2.60;2.17;;;7.40;99.90;;;;;;5087628;28;20183;-87
2022/11/23 01:15:58;;;;;;;2.90;2.10;;;7.40;99.90;;;;;;5078795;28;20215;-87
2022/11/23 01:18:24;;;;;;;2.60;2.13;;;7.50;99.90;;;;;;5071048;28;20212;-88
2022/11/23 01:20:50;;;;;;;4.10;2.67;;;7.40;99.90;;;;;;5073874;28;20234;-87
2022/11/23 01:23:15;;;;;;;3.37;2.40;;;7.40;99.90;;;;;;5077156;28;20192;-88
2022/11/23 01:25:41;;;;;;;3.43;2.40;;;7.50;99.90;;;;;;5082092;28;20277;-87
2022/11/23 01:28:08;;;;;;;4.03;2.33;;;7.50;99.90;;;;;;5075878;28;20196;-85
2022/11/23 01:30:35;;;;;;;2.57;2.00;;;7.50;99.90;;;;;;5080884;28;20203;-85
2022/11/23 01:33:02;;;;;;;4.37;2.40;;;7.50;99.90;;;;;;5079024;28;20187;-88
2022/11/23 01:35:28;;;;;;;5.83;2.40;;;7.40;99.90;;;;;;5075332;28;20214;-89
2022/11/23 01:37:54;;;;;;;4.70;2.20;;;7.30;99.90;;;;;;5074833;28;20606;-86
2022/11/23 01:40:20;;;;;;;3.97;2.40;;;7.30;99.90;;;;;;5079929;28;20222;-87
2022/11/23 01:42:51;;;;;;;3.30;2.30;;;7.20;99.90;;;;;;5067158;28;20193;-87
2022/11/23 01:45:34;;;;;;;3.50;2.30;;;7.40;99.90;;;;;;5071176;28;20181;-88
2022/11/23 01:48:03;;;;;;;5.37;2.30;;;7.40;99.90;;;;;;5081724;28;20203;-86
2022/11/23 01:50:29;;;;;;;5.27;2.60;;;7.30;99.90;;;;;;5081933;28;20203;-85
2022/11/23 01:52:56;;;;;;;3.83;2.40;;;7.20;99.90;;;;;;5084025;28;20198;-87
2022/11/23 01:55:23;;;;;;;3.07;1.97;;;7.20;99.90;;;;;;5072460;28;20185;-87
2022/11/23 01:57:48;;;;;;;6.13;2.30;;;7.30;99.90;;;;;;5082654;28;20203;-87
2022/11/23 02:00:15;;;;;;;3.33;2.10;;;7.30;99.90;;;;;;5085332;28;20203;-87
2022/11/23 02:02:48;;;;;;;4.50;2.20;;;7.30;99.90;;;;;;5085122;28;20176;-86
2022/11/23 02:05:17;;;;;;;3.60;2.23;;;7.40;99.90;;;;;;5083225;28;20403;-88
2022/11/23 02:07:43;;;;;;;5.27;2.23;;;7.40;99.90;;;;;;5071872;28;20188;-86
2022/11/23 02:10:09;;;;;;;4.17;2.20;;;7.40;99.90;;;;;;5073741;28;20234;-87
2022/11/23 02:12:34;;;;;;;2.83;2.33;;;7.30;99.90;;;;;;5075967;28;20184;-87
2022/11/23 02:15:00;;;;;;;3.43;2.47;;;7.30;99.90;;;;;;5083054;28;20217;-88
2022/11/23 02:17:26;;;;;;;4.50;2.30;;;7.40;99.90;;;;;;5078962;28;20768;-88
2022/11/23 02:20:10;;;;;;;4.13;2.50;;;7.40;99.90;;;;;;5077437;28;20246;-87
2022/11/23 02:22:54;;;;;;;4.00;2.33;;;7.50;99.90;;;;;;5084291;28;20180;-86
2022/11/23 02:25:41;;;;;;;2.50;2.03;;;7.40;99.90;;;;;;5086743;28;20227;-91
2022/11/23 02:28:07;;;;;;;2.87;2.17;;;7.40;99.90;;;;;;5086526;28;20229;-86
2022/11/23 02:30:35;;;;;;;5.00;1.97;;;7.40;99.90;;;;;;5080850;28;20220;-86
2022/11/23 02:33:03;;;;;;;5.17;2.60;;;7.50;99.90;;;;;;5073528;28;20187;-87
2022/11/23 02:35:29;;;;;;;4.43;2.13;;;7.40;99.90;;;;;;5078393;28;20195;-86
2022/11/23 02:37:55;;;;;;;5.47;2.33;;;7.50;99.90;;;;;;5084469;28;20578;-86
2022/11/23 02:40:27;;;;;;;3.07;2.20;;;7.40;99.90;;;;;;5080276;28;20760;-86
2022/11/23 02:42:53;;;;;;;5.07;2.30;;;7.50;99.90;;;;;;5069181;28;20251;-85
2022/11/23 02:45:50;;;;;;;5.10;2.20;;;7.50;99.90;;;;;;5076806;28;20226;-86
2022/11/23 02:48:16;;;;;;;6.87;2.53;;;7.30;99.90;;;;;;5081106;28;20190;-88
2022/11/23 02:50:42;;;;;;;3.60;2.20;;;7.40;99.90;;;;;;5080774;28;20226;-87
2022/11/23 02:53:08;;;;;;;4.43;2.70;;;7.30;99.90;;;;;;5078000;28;20188;-87
2022/11/23 02:55:34;;;;;;;3.73;1.90;;;7.20;99.90;;;;;;5079098;28;20168;-86
2022/11/23 02:58:00;;;;;;;4.67;2.10;;;7.10;99.90;;;;;;5079352;28;20211;-89
2022/11/23 03:00:26;;;;;;;4.77;2.20;;;7.20;99.90;;;;;;5078861;28;20199;-88
2022/11/23 03:02:52;;;;;;;2.63;1.80;;;7.10;99.90;;;;;;5079353;28;20242;-87
2022/11/23 03:05:17;;;;;;;4.43;2.20;;;7.10;99.90;;;;;;5082381;28;20202;-86
2022/11/23 03:07:43;;;;;;;4.40;2.30;;;7.10;99.90;;;;;;5073138;28;20245;-86
2022/11/23 03:10:09;;;;;;;5.37;2.40;;;7.10;99.90;;;;;;5080810;28;20234;-90
2022/11/23 03:12:34;;;;;;;5.13;2.20;;;7.00;99.90;;;;;;5073045;28;20198;-87
2022/11/23 03:15:00;;;;;;;4.67;2.60;;;7.00;99.90;;;;;;5075037;28;20188;-87
2022/11/23 03:17:26;;;;;;;4.30;2.33;;;6.90;99.90;;;;;;5074830;28;20250;-87
2022/11/23 03:19:52;;;;;;;5.37;2.03;;;6.90;99.90;;;;;;5081322;28;20207;-87
2022/11/23 03:22:18;;;;;;;3.47;2.20;;;6.80;99.90;;;;;;5074781;28;20254;-86
2022/11/23 03:24:44;;;;;;;2.47;2.20;;;6.90;99.90;;;;;;5080065;28;20281;-86
2022/11/23 03:27:10;;;;;;;6.23;2.33;;;6.80;99.90;;;;;;5082456;28;20175;-86
2022/11/23 03:29:35;;;;;;;4.17;2.07;;;6.70;99.90;;;;;;5081877;28;20186;-87
2022/11/23 03:32:01;;;;;;;4.30;2.20;;;6.80;99.90;;;;;;5076981;28;20203;-87
2022/11/23 03:34:26;;;;;;;4.53;2.23;;;6.80;99.90;;;;;;5078278;28;20195;-87
2022/11/23 03:36:52;;;;;;;4.17;2.07;;;6.90;99.90;;;;;;5082464;28;20279;-87
2022/11/23 03:39:18;;;;;;;4.27;2.50;;;6.90;99.90;;;;;;5087497;28;20574;-90
2022/11/23 03:41:44;;;;;;;3.80;2.30;;;6.80;99.90;;;;;;5090741;28;20238;-88
2022/11/23 03:44:10;;;;;;;4.47;2.40;;;6.80;99.90;;;;;;5082978;28;20200;-89
2022/11/23 03:46:35;;;;;;;5.23;2.00;;;6.70;99.90;;;;;;5085116;28;20186;-87
2022/11/23 03:49:01;;;;;;;4.37;2.23;;;6.60;99.90;;;;;;5079967;28;20198;-87
2022/11/23 03:51:27;;;;;;;4.23;2.50;;;6.60;99.90;;;;;;5066896;28;20264;-89
2022/11/23 03:53:52;;;;;;;3.37;2.30;;;6.60;99.90;;;;;;5077024;28;20265;-87
2022/11/23 03:56:18;;;;;;;5.53;2.93;;;6.50;99.90;;;;;;5073082;28;20217;-86
2022/11/23 03:58:44;;;;;;;4.53;2.53;;;6.60;99.90;;;;;;5074014;28;20212;-87
2022/11/23 04:01:10;;;;;;;4.60;2.90;;;6.50;99.90;;;;;;5077858;28;20267;-87
2022/11/23 04:03:36;;;;;;;5.77;3.00;;;6.50;99.90;;;;;;5084393;28;20192;-85
2022/11/23 04:06:02;;;;;;;3.20;2.53;;;6.50;99.90;;;;;;5081097;28;20183;-87
2022/11/23 04:08:27;;;;;;;4.53;2.70;;;6.50;99.90;;;;;;5083406;28;20188;-86
2022/11/23 04:10:57;;;;;;;5.93;2.93;;;6.50;99.90;;;;;;5081322;28;20216;-87
2022/11/23 04:13:23;;;;;;;5.23;2.73;;;6.50;99.90;;;;;;5079711;28;20279;-87
2022/11/23 04:15:48;;;;;;;4.10;2.53;;;6.60;99.90;;;;;;5072498;28;20268;-84
2022/11/23 04:18:14;;;;;;;4.93;2.63;;;6.70;99.90;;;;;;5089123;28;20401;-86
2022/11/23 04:20:40;;;;;;;4.83;2.50;;;6.80;99.90;;;;;;5077324;28;20234;-89
2022/11/23 04:23:06;;;;;;;3.43;2.30;;;6.90;99.90;;;;;;5083261;28;20201;-86
2022/11/23 04:25:31;;;;;;;3.33;2.30;;;6.90;99.90;;;;;;5084849;28;20203;-88
2022/11/23 04:27:57;;;;;;;3.07;2.40;;;7.00;99.90;;;;;;5078011;28;20273;-87
2022/11/23 04:30:22;;;;;;;6.67;2.33;;;7.00;99.90;;;;;;5081080;28;20238;-87
2022/11/23 04:32:48;;;;;;;4.40;2.60;;;7.00;99.90;;;;;;5078323;28;20203;-87
2022/11/23 04:35:14;;;;;;;5.33;2.40;;;7.00;99.90;;;;;;5088250;28;20572;-87
2022/11/23 04:37:39;;;;;;;5.03;2.60;;;7.00;99.90;;;;;;5070846;28;20223;-87
2022/11/23 04:40:06;;;;;;;4.70;2.60;;;7.10;99.90;;;;;;5083946;28;20219;-88
2022/11/23 04:42:31;;;;;;;3.10;2.40;;;7.10;99.90;;;;;;5086987;28;20183;-87
2022/11/23 04:44:57;;;;;;;6.27;2.60;;;7.10;99.90;;;;;;5083676;28;20180;-88
2022/11/23 04:47:23;;;;;;;4.97;2.63;;;7.00;99.90;;;;;;5087593;28;20199;-86
2022/11/23 04:49:49;;;;;;;3.07;2.50;;;7.00;99.90;;;;;;5087755;28;20207;-88
2022/11/23 04:52:15;;;;;;;4.40;2.73;;;6.90;99.90;;;;;;5080906;28;20188;-87
2022/11/23 04:54:41;;;;;;;4.47;2.53;;;6.90;99.90;;;;;;5083348;28;20381;-87
2022/11/23 04:57:07;;;;;;;3.67;2.50;;;7.00;99.90;;;;;;5086743;28;20218;-86
2022/11/23 04:59:33;;;;;;;5.13;2.37;;;6.90;99.90;;;;;;5082879;28;20191;-87
2022/11/23 05:01:59;;;;;;;2.27;2.07;;;6.80;99.90;;;;;;5083030;28;20188;-88
2022/11/23 05:04:26;;;;;;;3.37;2.03;;;6.70;99.90;;;;;;5089883;28;20188;-89
2022/11/23 05:06:52;;;;;;;3.07;2.37;;;6.60;99.90;;;;;;5088088;28;20183;-88
2022/11/23 05:09:18;;;;;;;3.77;2.20;;;6.30;99.90;;;;;;5086529;28;20179;-85
2022/11/23 05:11:43;;;;;;;2.53;2.10;;;6.40;99.90;;;;;;5089944;28;20266;-89
2022/11/23 05:14:09;;;;;;;2.63;2.13;;;6.40;99.90;;;;;;5086124;28;20203;-85
2022/11/23 05:16:35;;;;;;;3.57;2.07;;;6.50;99.90;;;;;;5089810;28;20595;-89
2022/11/23 05:19:01;;;;;;;2.80;2.47;;;6.50;99.90;;;;;;5072381;28;20192;-88
2022/11/23 05:21:27;;;;;;;4.73;2.40;;;6.50;99.90;;;;;;5083663;28;20208;-87
2022/11/23 05:23:53;;;;;;;4.33;2.60;;;6.50;99.90;;;;;;5089818;28;20248;-90
2022/11/23 05:26:19;;;;;;;4.57;3.67;;;6.50;99.90;;;;;;5085480;28;20191;-87
2022/11/23 05:28:44;;;;;;;5.97;5.37;;;6.50;99.90;;;;;;5084736;28;20195;-88
2022/11/23 05:31:10;;;;;;;9.53;6.50;;;6.50;99.90;;;;;;5086387;28;20211;-86
2022/11/23 05:33:36;;;;;;;14.37;9.03;;;6.50;99.90;;;;;;5091054;28;20171;-87
2022/11/23 05:36:02;;;;;;;11.23;7.80;;;6.50;99.90;;;;;;5088496;28;20191;-86
2022/11/23 05:38:28;;;;;;;17.00;11.00;;;6.50;99.90;;;;;;5084749;28;20199;-87
2022/11/23 05:40:54;;;;;;;14.07;11.03;;;6.50;99.90;;;;;;5070476;28;20206;-90
2022/11/23 05:43:19;;;;;;;13.30;9.70;;;6.40;99.90;;;;;;5070326;28;20205;-88
2022/11/23 05:45:45;;;;;;;12.80;10.40;;;6.40;99.90;;;;;;5079488;28;20337;-87
2022/11/23 05:48:11;;;;;;;10.90;8.67;;;6.40;99.90;;;;;;5072483;28;20176;-88
2022/11/23 05:50:37;;;;;;;12.43;9.23;;;6.50;99.90;;;;;;5074229;28;20238;-89
2022/11/23 05:53:02;;;;;;;9.90;8.47;;;6.40;99.90;;;;;;5076287;28;20247;-88
2022/11/23 05:55:28;;;;;;;8.77;7.20;;;6.50;99.90;;;;;;5086795;28;20198;-86
2022/11/23 05:57:54;;;;;;;8.17;5.67;;;6.40;99.90;;;;;;5093999;28;20222;-86
2022/11/23 06:00:19;;;;;;;11.43;10.13;;;6.40;99.90;;;;;;5091624;28;20199;-86
2022/11/23 06:02:45;;;;;;;8.03;7.23;;;6.40;99.90;;;;;;5093057;28;20183;-87
2022/11/23 06:05:11;;;;;;;9.40;7.63;;;6.30;99.90;;;;;;5085470;28;20188;-88
2022/11/23 06:07:37;;;;;;;7.70;6.47;;;6.30;99.90;;;;;;5075778;28;20200;-88
2022/11/23 06:10:05;;;;;;;10.00;9.00;;;6.30;99.90;;;;;;5076389;28;20204;-88
2022/11/23 06:12:31;;;;;;;7.60;6.80;;;6.20;99.90;;;;;;5086181;28;20180;-86
2022/11/23 06:14:58;;;;;;;5.37;4.80;;;6.30;99.90;;;;;;5090280;28;20187;-87
2022/11/23 06:17:24;;;;;;;8.17;6.30;;;6.20;99.90;;;;;;5093933;28;20235;-92
2022/11/23 06:19:50;;;;;;;7.03;6.27;;;6.20;99.90;;;;;;5082001;28;20225;-88
2022/11/23 06:22:16;;;;;;;5.87;5.27;;;6.30;99.90;;;;;;5076936;28;20183;-88
2022/11/23 06:24:42;;;;;;;8.30;5.70;;;6.20;99.90;;;;;;5093737;28;20190;-87
2022/11/23 06:27:08;;;;;;;6.83;5.47;;;6.20;99.90;;;;;;5094507;28;20210;-87
2022/11/23 06:29:34;;;;;;;5.63;4.40;;;6.10;99.90;;;;;;5079677;28;20256;-88
2022/11/23 06:32:00;;;;;;;7.13;6.43;;;6.00;99.90;;;;;;5087330;28;20195;-88
2022/11/23 06:34:27;;;;;;;7.80;7.00;;;6.00;99.90;;;;;;5084478;28;20212;-85
2022/11/23 06:36:52;;;;;;;5.53;4.30;;;5.90;99.90;;;;;;5080244;28;20245;-88
2022/11/23 06:39:18;;;;;;;5.93;4.53;;;5.90;99.90;;;;;;5082184;28;20235;-89
2022/11/23 06:41:44;;;;;;;5.30;4.17;;;5.90;99.90;;;;;;5088358;28;20352;-87
2022/11/23 06:44:09;;;;;;;5.53;5.03;;;5.90;99.90;;;;;;5080930;28;20207;-87
2022/11/23 06:46:35;;;;;;;5.10;4.00;;;5.50;99.90;;;;;;5073286;28;20192;-85
2022/11/23 06:49:10;;;;;;;5.90;4.10;;;5.50;99.90;;;;;;5058573;28;20202;-87
2022/11/23 06:58:42;;;;;;;5.63;5.10;;;5.40;99.90;;;;;;5040168;28;20255;-88
2022/11/23 07:01:09;;;;;;;5.40;4.90;;;5.40;99.90;;;;;;5058847;28;20730;-89
2022/11/23 07:03:36;;;;;;;6.80;5.60;;;5.50;99.90;;;;;;5059353;28;20181;-84
2022/11/23 07:06:07;;;;;;;5.37;4.50;;;5.50;99.90;;;;;;5057789;28;20192;-85
2022/11/23 07:08:41;;;;;;;7.53;4.40;;;5.50;99.90;;;;;;5060364;28;20192;-86
2022/11/23 07:11:12;;;;;;;6.83;4.73;;;5.60;99.90;;;;;;5061685;28;20207;-86
2022/11/23 07:13:38;;;;;;;5.30;4.80;;;5.60;99.90;;;;;;5059464;28;20192;-87
2022/11/23 07:16:04;;;;;;;6.13;5.10;;;5.60;99.90;;;;;;5062209;28;20283;-87
2022/11/23 07:18:30;;;;;;;7.77;4.50;;;5.70;99.90;;;;;;5069754;28;20246;-86
2022/11/23 07:20:59;;;;;;;5.33;4.83;;;5.70;99.90;;;;;;5070421;28;20247;-86
2022/11/23 07:23:27;;;;;;;9.10;6.50;;;5.60;99.90;;;;;;5071706;28;20244;-86
2022/11/23 07:25:53;;;;;;;5.73;4.70;;;5.70;99.90;;;;;;5062667;28;20191;-85
2022/11/23 07:28:19;;;;;;;5.37;4.87;;;5.70;99.90;;;;;;5072085;28;20196;-88
2022/11/23 07:30:45;;;;;;;7.97;4.83;;;5.80;99.90;;;;;;5073552;28;20196;-86
2022/11/23 07:33:11;;;;;;;5.47;4.87;;;5.70;99.90;;;;;;5061222;28;20196;-86
2022/11/23 07:35:39;;;;;;;7.43;5.43;;;5.80;99.90;;;;;;5066483;28;20192;-87
2022/11/23 07:38:06;;;;;;;6.47;4.40;;;5.80;99.90;;;;;;5071875;28;20223;-86
2022/11/23 07:40:34;;;;;;;9.37;5.53;;;5.80;99.90;;;;;;5072194;28;20212;-87
2022/11/23 07:43:02;;;;;;;5.17;4.67;;;5.70;99.90;;;;;;5070007;28;20180;-88
2022/11/23 07:45:30;;;;;;;5.30;4.90;;;5.80;99.90;;;;;;5083238;28;20189;-85
2022/11/23 07:48:07;;;;;;;5.77;4.80;;;5.80;99.90;;;;;;5070293;28;20204;-86
2022/11/23 07:50:35;;;;;;;6.07;4.47;;;5.90;99.90;;;;;;5069825;28;20265;-87
2022/11/23 07:53:02;;;;;;;6.13;4.13;;;5.80;99.90;;;;;;5062065;28;20241;-85
2022/11/23 07:55:29;;;;;;;5.60;4.67;;;5.90;99.90;;;;;;5062711;28;20203;-87
2022/11/23 07:57:55;;;;;;;5.13;4.63;;;5.90;99.90;;;;;;5068085;28;20212;-86
2022/11/23 08:00:22;;;;;;;8.50;4.97;;;5.80;99.90;;;;;;5070770;28;20208;-88
2022/11/23 08:02:50;;;;;;;5.33;4.30;;;5.80;99.90;;;;;;5078170;28;20241;-88
2022/11/23 08:05:26;;;;;;;4.93;4.43;;;5.90;99.90;;;;;;5103949;22;20228;-89
2022/11/23 08:08:19;;;;;;;4.73;4.23;;;5.90;99.90;;;;;;5068304;28;20702;-89
2022/11/23 08:10:51;;;;;;;6.00;4.90;;;6.10;99.90;;;;;;5022708;28;20194;-90
2022/11/23 08:13:46;;;;;;;4.73;3.90;;;6.10;99.90;;;;;;5063241;28;20231;-90
2022/11/23 08:16:50;;;;;;;5.17;4.30;;;6.10;99.90;;;;;;5038523;28;20180;-89
2022/11/23 08:19:26;;;;;;;7.07;4.60;;;6.10;99.90;;;;;;5032558;28;20310;-89
2022/11/23 08:21:53;;;;;;;6.33;4.07;;;6.20;99.90;;;;;;5053957;28;20187;-89
2022/11/23 08:24:19;;;;;;;5.17;3.87;;;6.20;99.90;;;;;;5034831;28;20240;-88
2022/11/23 08:26:51;;;;;;;5.23;4.13;;;6.20;99.90;;;;;;5035834;28;20173;-89
2022/11/23 08:30:02;;;;;;;5.53;4.17;;;6.30;99.90;;;;;;5056767;28;20256;-89
2022/11/23 08:32:42;;;;;;;4.60;4.00;;;6.30;99.90;;;;;;5022645;28;20185;-89
2022/11/23 08:35:11;;;;;;;5.27;3.90;;;6.40;99.90;;;;;;5029655;28;20546;-89
2022/11/23 08:38:08;;;;;;;6.20;4.47;;;6.40;99.90;;;;;;5047067;28;20600;-89
2022/11/23 08:40:35;;;;;;;4.83;3.97;;;6.40;99.90;;;;;;4987356;28;20194;-90
2022/11/23 08:49:45;;;;;;;6.03;4.27;;;6.50;99.90;;;;;;5005947;28;20190;-89
2022/11/23 08:52:45;;;;;;;5.13;4.10;;;6.60;99.90;;;;;;5020722;28;20201;-90
2022/11/23 08:55:27;;;;;;;5.23;4.00;;;6.60;99.90;;;;;;5037810;28;20231;-90
2022/11/23 08:58:22;;;;;;;6.70;4.10;;;6.60;99.90;;;;;;5048739;28;20579;-89
2022/11/23 09:00:58;;;;;;;4.57;3.87;;;6.70;99.90;;;;;;5007816;28;20273;-91
2022/11/23 09:03:32;;;;;;;4.93;3.73;;;6.70;99.90;;;;;;5051009;28;20267;-90
2022/11/23 09:07:10;;;;;;;7.47;4.07;;;6.80;99.90;;;;;;5058046;28;20197;-89
2022/11/23 09:09:34;;;;;;;5.20;3.30;;;6.80;99.90;;;;;;5000785;28;20206;-90
2022/11/23 09:15:53;;;;;;;5.63;3.80;;;6.80;99.90;;;;;;5033289;28;20250;-89
2022/11/23 09:18:49;;;;;;;5.40;3.70;;;6.90;99.90;;;;;;5041749;28;20231;-89
2022/11/23 09:21:53;;;;;;;6.43;4.50;;;7.00;99.90;;;;;;5054899;28;20253;-88
2022/11/23 09:24:19;;;;;;;7.10;4.93;;;7.20;99.90;;;;;;5061772;22;20720;-86
2022/11/23 09:26:45;;;;;;;5.97;3.20;;;7.50;99.90;;;;;;5035783;28;20188;-85
2022/11/23 09:29:10;;;;;;;5.90;2.93;;;7.70;99.90;;;;;;5031732;28;20240;-86
2022/11/23 09:31:37;;;;;;;9.60;3.30;;;7.70;99.20;;;;;;5032431;28;20209;-84
2022/11/23 09:34:03;;;;;;;3.53;2.60;;;7.80;97.60;;;;;;5028009;28;20192;-85
2022/11/23 09:36:29;;;;;;;8.27;5.00;;;7.90;97.40;;;;;;5023810;28;20232;-86
2022/11/23 09:38:55;;;;;;;6.87;2.53;;;8.10;96.00;;;;;;5031920;28;20201;-87
2022/11/23 09:41:23;;;;;;;4.20;2.40;;;8.20;96.60;;;;;;5033438;28;20291;-85
2022/11/23 09:43:52;;;;;;;3.10;2.70;;;8.40;93.10;;;;;;5032624;28;20220;-85
2022/11/23 09:46:49;;;;;;;7.17;2.97;;;8.40;92.00;;;;;;5033252;28;20213;-86
2022/11/23 09:49:18;;;;;;;6.13;2.60;;;8.50;94.00;;;;;;4998738;28;20212;-86
2022/11/23 09:51:45;;;;;;;8.50;3.43;;;8.70;93.90;;;;;;5032172;28;20217;-85
2022/11/23 09:54:23;;;;;;;5.07;3.53;;;9.00;87.80;;;;;;5033112;28;20197;-86
2022/11/23 09:56:52;;;;;;;4.40;2.77;;;9.10;88.00;;;;;;5033603;28;20185;-88
2022/11/23 09:59:27;;;;;;;4.33;3.00;;;9.40;85.40;;;;;;5032716;28;20181;-88
2022/11/23 10:01:53;;;;;;;5.97;2.87;;;9.40;86.90;;;;;;5033522;28;20285;-87
2022/11/23 10:04:19;;;;;;;4.10;2.50;;;9.40;85.40;;;;;;5033467;28;20190;-85
2022/11/23 10:06:55;;;;;;;6.53;2.87;;;9.50;86.00;;;;;;5032851;28;20181;-85
2022/11/23 10:10:02;;;;;;;4.23;2.93;;;9.60;84.90;;;;;;5017548;28;20214;-86
2022/11/23 10:12:37;;;;;;;6.57;3.37;;;9.70;86.40;;;;;;5007798;28;20194;-85
2022/11/23 10:15:26;;;;;;;5.37;2.50;;;9.80;83.90;;;;;;5032794;28;20658;-86
2022/11/23 10:18:36;;;;;;;7.47;3.70;;;9.90;83.30;;;;;;5032252;28;20224;-86
2022/11/23 10:21:11;;;;;;;3.63;2.80;;;10.30;80.30;;;;;;5031316;28;20237;-88
2022/11/23 10:24:02;;;;;;;6.47;2.90;;;10.20;81.90;;;;;;5033424;28;20221;-88
2022/11/23 10:26:38;;;;;;;5.20;2.80;;;10.20;82.90;;;;;;5029929;28;20232;-86
2022/11/23 10:29:21;;;;;;;4.23;2.67;;;10.30;80.20;;;;;;5031866;28;20330;-85
2022/11/23 10:31:48;;;;;;;5.37;3.37;;;10.40;80.10;;;;;;5013490;28;20215;-86
2022/11/23 10:34:20;;;;;;;7.87;3.03;;;10.60;79.70;;;;;;5030682;28;20229;-87
2022/11/23 10:36:46;;;;;;;5.57;2.73;;;10.70;78.40;;;;;;5030149;28;20216;-86
2022/11/23 10:39:26;;;;;;;7.37;3.10;;;10.80;76.30;;;;;;5031826;28;20195;-85
2022/11/23 10:41:56;;;;;;;3.50;3.00;;;10.90;77.30;;;;;;5030207;28;20271;-87
2022/11/23 10:44:36;;;;;;;4.13;2.63;;;11.10;74.00;;;;;;5031037;28;20210;-86
2022/11/23 10:47:03;;;;;;;5.30;3.10;;;11.20;75.10;;;;;;5022728;28;20183;-86
2022/11/23 10:49:31;;;;;;;5.43;3.00;;;11.00;73.20;;;;;;5031828;28;20188;-87
2022/11/23 10:52:04;;;;;;;7.03;2.87;;;11.10;75.90;;;;;;5032180;28;20218;-86
2022/11/23 10:54:37;;;;;;;5.13;3.00;;;11.20;74.40;;;;;;5032549;28;20191;-88
2022/11/23 10:57:26;;;;;;;7.90;3.07;;;11.50;73.90;;;;;;5032844;28;20173;-86
2022/11/23 11:00:02;;;;;;;5.50;2.70;;;11.40;74.20;;;;;;5033870;28;20208;-87
2022/11/23 11:02:29;;;;;;;6.33;2.83;;;11.50;73.50;;;;;;5032300;28;20181;-85
2022/11/23 11:05:32;;;;;;;7.47;3.20;;;11.80;68.30;;;;;;5032925;28;20187;-85
2022/11/23 11:08:02;;;;;;;5.47;2.87;;;12.00;67.80;;;;;;5023446;28;20184;-88
2022/11/23 11:10:38;;;;;;;8.60;3.17;;;11.90;67.20;;;;;;5030042;28;20209;-86
2022/11/23 11:13:21;;;;;;;7.27;3.00;;;12.20;70.90;;;;;;5029457;28;20199;-86
2022/11/23 11:16:00;;;;;;;6.80;3.33;;;12.30;69.00;;;;;;5031182;28;20186;-85
2022/11/23 11:18:34;;;;;;;7.43;3.43;;;12.50;66.20;;;;;;5025660;28;20209;-86
2022/11/23 11:21:07;;;;;;;6.23;3.00;;;12.70;67.40;;;;;;5029498;28;20221;-87
2022/11/23 11:23:37;;;;;;;3.53;2.60;;;12.90;62.50;;;;;;5027656;28;20321;-86
2022/11/23 11:26:25;;;;;;;5.83;2.60;;;12.90;64.30;;;;;;5029594;28;20197;-87
2022/11/23 11:28:54;;;;;;;4.13;3.03;;;13.10;62.10;;;;;;5025219;28;20215;-87
2022/11/23 11:31:31;;;;;;;4.63;2.67;;;13.10;64.20;;;;;;5029626;28;20622;-86
2022/11/23 11:34:22;;;;;;;4.90;3.07;;;13.10;62.60;;;;;;5030087;28;20189;-87
2022/11/23 11:37:07;;;;;;;8.17;2.97;;;13.10;62.30;;;;;;5026606;28;20186;-87
2022/11/23 11:39:43;;;;;;;3.17;2.37;;;13.10;59.40;;;;;;5027774;28;20225;-85
2022/11/23 11:42:18;;;;;;;5.40;3.17;;;13.00;61.30;;;;;;5020366;28;20189;-84
2022/11/23 11:44:45;;;;;;;4.80;3.20;;;13.40;60.30;;;;;;5025190;28;20171;-87
2022/11/23 11:47:29;;;;;;;6.43;2.70;;;13.60;58.20;;;;;;5029294;28;20199;-88
2022/11/23 11:49:58;;;;;;;4.73;2.50;;;13.40;56.10;;;;;;5028850;28;20207;-89
2022/11/23 11:52:35;;;;;;;4.97;2.60;;;13.40;59.40;;;;;;5028490;28;20196;-87
2022/11/23 11:55:10;;;;;;;3.73;2.57;;;13.30;60.20;;;;;;5028974;28;20187;-86
2022/11/23 11:57:43;;;;;;;4.73;2.97;;;13.50;59.10;;;;;;5024332;28;20389;-89
2022/11/23 12:00:18;;;;;;;3.43;2.60;;;13.70;57.00;;;;;;5031502;28;20274;-88
2022/11/23 12:03:20;;;;;;;5.63;2.90;;;13.70;58.10;;;;;;5030997;28;20210;-87
2022/11/23 12:05:51;;;;;;;4.83;2.67;;;14.00;55.00;;;;;;5027166;28;20176;-87
2022/11/23 12:08:17;;;;;;;3.33;2.53;;;14.40;55.00;;;;;;5031150;28;20193;-88
2022/11/23 12:10:58;;;;;;;5.83;2.90;;;14.70;52.50;;;;;;5032415;28;20211;-89
2022/11/23 12:13:37;;;;;;;3.87;2.77;;;15.00;52.20;;;;;;5037457;28;20200;-87
2022/11/23 12:16:25;;;;;;;4.43;2.63;;;15.20;51.90;;;;;;5034897;28;20922;-88
2022/11/23 12:19:02;;;;;;;3.77;2.73;;;15.40;51.00;;;;;;5030237;28;20210;-86
2022/11/23 12:21:42;;;;;;;4.87;2.77;;;15.00;50.10;;;;;;5032499;28;20241;-88
2022/11/23 12:24:27;;;;;;;4.43;2.87;;;14.90;51.60;;;;;;5024862;28;20212;-87
2022/11/23 12:27:33;;;;;;;4.53;3.00;;;15.10;49.40;;;;;;5024973;28;20195;-86
2022/11/23 12:30:24;;;;;;;4.00;2.60;;;14.80;50.80;;;;;;5025622;28;20210;-87
2022/11/23 12:33:20;;;;;;;4.57;3.17;;;14.90;52.40;;;;;;5028742;28;20221;-86
2022/11/23 12:36:01;;;;;;;4.67;3.07;;;14.90;52.90;;;;;;5036206;28;20207;-86
2022/11/23 12:38:35;;;;;;;7.97;3.03;;;15.20;51.40;;;;;;5016295;28;20202;-88
2022/11/23 12:41:15;;;;;;;3.20;2.70;;;15.30;51.20;;;;;;5026984;28;20199;-85
2022/11/23 12:44:14;;;;;;;11.37;7.70;;;15.20;50.90;;;;;;5025962;28;20246;-85
2022/11/23 12:47:17;;;;;;;5.57;3.83;;;15.30;51.60;;;;;;5025713;28;20197;-85
2022/11/23 12:50:09;;;;;;;6.47;4.30;;;15.40;50.50;;;;;;5017589;28;20182;-84
2022/11/23 12:53:03;;;;;;;5.27;3.10;;;15.30;50.90;;;;;;5025406;28;20270;-86
2022/11/23 12:56:02;;;;;;;5.13;3.20;;;14.70;52.10;;;;;;5020581;28;20186;-86
2022/11/23 12:58:30;;;;;;;3.37;2.30;;;14.40;53.20;;;;;;5015319;28;20241;-86
2022/11/23 13:00:58;;;;;;;6.73;2.90;;;13.80;53.50;;;;;;5024961;28;20255;-86
2022/11/23 13:03:40;;;;;;;7.07;3.57;;;13.40;55.50;;;;;;5025095;28;20197;-85
2022/11/23 13:06:44;;;;;;;2.80;2.50;;;13.50;55.70;;;;;;5025731;28;20219;-85
2022/11/23 13:09:34;;;;;;;7.63;3.03;;;13.90;55.70;;;;;;5003447;28;20202;-86
2022/11/23 13:12:17;;;;;;;5.07;3.00;;;13.80;56.40;;;;;;5026447;28;20197;-87
2022/11/23 13:14:46;;;;;;;3.40;2.37;;;13.50;54.50;;;;;;5023478;28;20201;-86
2022/11/23 13:17:23;;;;;;;3.80;2.40;;;13.50;54.00;;;;;;5023316;28;20292;-86
2022/11/23 13:20:22;;;;;;;3.53;2.60;;;13.50;52.30;;;;;;5003073;28;20706;-87
2022/11/23 13:22:49;;;;;;;5.40;2.70;;;13.60;52.70;;;;;;5024008;28;20200;-85
2022/11/23 13:25:25;;;;;;;2.93;2.30;;;13.10;55.20;;;;;;5024674;28;20178;-86
2022/11/23 13:27:51;;;;;;;4.37;2.40;;;13.10;53.60;;;;;;5020749;28;20189;-87
2022/11/23 13:30:27;;;;;;;4.13;2.10;;;13.00;54.90;;;;;;5023824;28;20222;-87
2022/11/23 13:33:00;;;;;;;4.87;2.43;;;12.80;57.10;;;;;;5024448;28;20266;-87
2022/11/23 13:35:29;;;;;;;6.20;3.07;;;12.80;55.50;;;;;;5019360;28;20195;-86
2022/11/23 13:37:59;;;;;;;2.93;2.40;;;12.50;55.10;;;;;;5008894;28;20214;-86